Wetterdaten: Woche 03.11.14 - 09.11.14 (KW45)
Datum Zeit Temperatur Luftfeuchte Luftdruck Niederschlag Windrichtung Sonnenschein Solar Wind
03.11.2014 00:00 5,0 C 95 % 1014,2 hPa 0,0 l/m N 0,00 h 0 W/m 0,1 km/h (0 Bft)
03.11.2014 01:00 4,7 C 95 % 1013,8 hPa 0,2 l/m N 0,00 h 0 W/m 0,0 km/h (0 Bft)
03.11.2014 02:00 4,5 C 96 % 1013,4 hPa 0,0 l/m N 0,00 h 0 W/m 0,0 km/h (0 Bft)
03.11.2014 03:00 4,0 C 96 % 1013,2 hPa 0,0 l/m N 0,00 h 0 W/m 0,5 km/h (0 Bft)
03.11.2014 04:00 3,8 C 97 % 1012,9 hPa 0,0 l/m N 0,00 h 0 W/m 0,3 km/h (0 Bft)
03.11.2014 05:00 4,2 C 97 % 1012,6 hPa 0,0 l/m SW 0,00 h 0 W/m 1,9 km/h (1 Bft)
03.11.2014 06:00 4,3 C 97 % 1012,3 hPa 0,0 l/m N 0,00 h 0 W/m 0,5 km/h (0 Bft)
03.11.2014 07:00 4,0 C 97 % 1012,0 hPa 0,0 l/m N 0,08 h 18 W/m 0,0 km/h (0 Bft)
03.11.2014 08:00 3,9 C 98 % 1012,1 hPa 0,0 l/m N 0,25 h 74 W/m 0,0 km/h (0 Bft)
03.11.2014 09:00 5,3 C 99 % 1011,6 hPa 0,0 l/m SW 1,00 h 237 W/m 0,8 km/h (0 Bft)
03.11.2014 10:00 8,2 C 99 % 1010,8 hPa 0,0 l/m SW 1,00 h 364 W/m 4,1 km/h (1 Bft)
03.11.2014 11:00 11,9 C 91 % 1010,0 hPa 0,0 l/m S-SW 1,00 h 424 W/m 8,0 km/h (2 Bft)
03.11.2014 12:00 15,2 C 71 % 1008,4 hPa 0,0 l/m S-SO 0,92 h 431 W/m 9,4 km/h (2 Bft)
03.11.2014 13:00 16,3 C 63 % 1007,1 hPa 0,0 l/m SW 0,75 h 382 W/m 9,5 km/h (2 Bft)
03.11.2014 14:00 16,6 C 61 % 1006,2 hPa 0,0 l/m SW 0,50 h 222 W/m 8,2 km/h (2 Bft)
03.11.2014 15:00 16,9 C 58 % 1005,5 hPa 0,0 l/m SW 0,92 h 199 W/m 6,8 km/h (2 Bft)
03.11.2014 16:00 16,1 C 62 % 1004,6 hPa 0,0 l/m S-SO 0,00 h 22 W/m 2,3 km/h (1 Bft)
03.11.2014 17:00 13,1 C 71 % 1004,1 hPa 0,0 l/m N 0,00 h 0 W/m 0,1 km/h (0 Bft)
03.11.2014 18:00 10,2 C 79 % 1003,5 hPa 0,0 l/m N 0,00 h 0 W/m 0,0 km/h (0 Bft)
03.11.2014 19:00 9,0 C 84 % 1002,9 hPa 0,0 l/m N 0,00 h 0 W/m 0,0 km/h (0 Bft)
03.11.2014 20:00 8,8 C 84 % 1002,1 hPa 0,0 l/m N 0,00 h 0 W/m 0,8 km/h (0 Bft)
03.11.2014 21:00 8,1 C 84 % 1001,2 hPa 0,0 l/m N 0,00 h 0 W/m 0,3 km/h (0 Bft)
03.11.2014 22:00 7,0 C 85 % 1000,3 hPa 0,0 l/m S-SO 0,00 h 0 W/m 3,1 km/h (1 Bft)
03.11.2014 23:00 7,2 C 84 % 999,7 hPa 0,0 l/m S-SW 0,00 h 0 W/m 8,0 km/h (2 Bft)
04.11.2014 00:00 9,7 C 70 % 998,8 hPa 0,0 l/m SW 0,00 h 0 W/m 10,8 km/h (2 Bft)
04.11.2014 01:00 11,4 C 63 % 998,1 hPa 0,0 l/m SW 0,00 h 0 W/m 12,5 km/h (3 Bft)
04.11.2014 02:00 11,4 C 62 % 997,3 hPa 0,0 l/m SW 0,00 h 0 W/m 9,4 km/h (2 Bft)
04.11.2014 03:00 11,9 C 61 % 996,7 hPa 0,0 l/m S-SW 0,00 h 0 W/m 12,9 km/h (3 Bft)
04.11.2014 04:00 13,7 C 55 % 996,2 hPa 0,0 l/m S-SW 0,00 h 0 W/m 24,8 km/h (4 Bft)
04.11.2014 05:00 14,8 C 50 % 996,1 hPa 0,0 l/m S-SW 0,00 h 0 W/m 25,5 km/h (4 Bft)
04.11.2014 06:00 14,2 C 49 % 995,5 hPa 0,0 l/m SW 0,00 h 0 W/m 19,3 km/h (3 Bft)
04.11.2014 07:00 13,2 C 53 % 995,6 hPa 0,0 l/m N 0,00 h 16 W/m 4,0 km/h (1 Bft)
04.11.2014 08:00 11,9 C 61 % 995,3 hPa 0,0 l/m N 0,00 h 70 W/m 1,1 km/h (0 Bft)
04.11.2014 09:00 12,9 C 59 % 994,8 hPa 0,0 l/m S-SO 0,67 h 188 W/m 9,1 km/h (2 Bft)
04.11.2014 10:00 17,0 C 48 % 994,4 hPa 0,0 l/m S 0,08 h 188 W/m 15,7 km/h (3 Bft)
04.11.2014 11:00 17,5 C 48 % 993,7 hPa 0,0 l/m S-SW 0,25 h 220 W/m 11,8 km/h (2 Bft)
04.11.2014 12:00 17,5 C 52 % 992,9 hPa 0,0 l/m S 0,08 h 198 W/m 5,9 km/h (2 Bft)
04.11.2014 13:00 17,9 C 53 % 991,9 hPa 0,0 l/m SO 0,25 h 212 W/m 5,5 km/h (1 Bft)
04.11.2014 14:00 18,6 C 46 % 991,6 hPa 0,0 l/m S 0,42 h 161 W/m 13,7 km/h (3 Bft)
04.11.2014 15:00 17,9 C 44 % 991,0 hPa 0,0 l/m S 0,00 h 61 W/m 25,8 km/h (4 Bft)
04.11.2014 16:00 17,0 C 45 % 990,5 hPa 0,0 l/m SW 0,42 h 41 W/m 18,2 km/h (3 Bft)
04.11.2014 17:00 15,8 C 47 % 990,4 hPa 0,0 l/m S-SW 0,00 h 0 W/m 12,1 km/h (2 Bft)
04.11.2014 18:00 14,6 C 57 % 990,8 hPa 0,0 l/m NW 0,00 h 0 W/m 9,5 km/h (2 Bft)
04.11.2014 19:00 11,7 C 74 % 991,4 hPa 0,0 l/m N-NW 0,00 h 0 W/m 12,8 km/h (3 Bft)
04.11.2014 20:00 10,0 C 82 % 991,4 hPa 0,0 l/m N-NW 0,00 h 0 W/m 11,7 km/h (2 Bft)
04.11.2014 21:00 9,4 C 86 % 991,8 hPa 0,0 l/m N-NW 0,00 h 0 W/m 9,7 km/h (2 Bft)
04.11.2014 22:00 9,2 C 88 % 992,1 hPa 0,0 l/m N 0,00 h 0 W/m 2,1 km/h (1 Bft)
04.11.2014 23:00 8,8 C 89 % 992,3 hPa 0,0 l/m N-NW 0,00 h 0 W/m 2,0 km/h (1 Bft)
05.11.2014 00:00 8,5 C 91 % 993,2 hPa 0,0 l/m NW 0,00 h 0 W/m 3,1 km/h (1 Bft)
05.11.2014 01:00 8,4 C 92 % 994,0 hPa 0,0 l/m NW 0,00 h 0 W/m 2,3 km/h (1 Bft)
05.11.2014 02:00 8,2 C 92 % 994,6 hPa 0,0 l/m N 0,00 h 0 W/m 2,8 km/h (1 Bft)
05.11.2014 03:00 8,1 C 92 % 995,2 hPa 0,0 l/m N 0,00 h 0 W/m 3,1 km/h (1 Bft)
05.11.2014 04:00 8,2 C 92 % 995,7 hPa 0,0 l/m N-NW 0,00 h 0 W/m 4,3 km/h (1 Bft)
05.11.2014 05:00 8,2 C 90 % 996,2 hPa 0,0 l/m N-NW 0,00 h 0 W/m 9,1 km/h (2 Bft)
05.11.2014 06:00 7,8 C 88 % 996,9 hPa 0,0 l/m N-NW 0,00 h 0 W/m 3,7 km/h (1 Bft)
05.11.2014 07:00 7,7 C 90 % 998,3 hPa 0,2 l/m N 0,00 h 8 W/m 1,3 km/h (1 Bft)
05.11.2014 08:00 7,4 C 92 % 999,2 hPa 0,0 l/m N 0,00 h 30 W/m 0,8 km/h (0 Bft)
05.11.2014 09:00 7,5 C 93 % 999,4 hPa 0,0 l/m N-NW 0,00 h 53 W/m 5,1 km/h (1 Bft)
05.11.2014 10:00 7,8 C 91 % 1000,0 hPa 0,0 l/m N-NW 0,00 h 64 W/m 8,6 km/h (2 Bft)
05.11.2014 11:00 7,7 C 91 % 1000,4 hPa 0,4 l/m NW 0,00 h 64 W/m 9,1 km/h (2 Bft)
05.11.2014 12:00 7,1 C 92 % 1000,6 hPa 0,8 l/m NW 0,00 h 54 W/m 10,8 km/h (2 Bft)
05.11.2014 13:00 6,3 C 93 % 1001,1 hPa 1,0 l/m N-NW 0,00 h 41 W/m 13,0 km/h (3 Bft)
05.11.2014 14:00 5,8 C 94 % 1001,7 hPa 1,4 l/m NW 0,00 h 25 W/m 12,5 km/h (3 Bft)
05.11.2014 15:00 5,6 C 95 % 1002,3 hPa 1,4 l/m NW 0,00 h 15 W/m 4,3 km/h (1 Bft)
05.11.2014 16:00 5,3 C 95 % 1003,2 hPa 1,8 l/m NW 0,00 h 5 W/m 5,9 km/h (2 Bft)
05.11.2014 17:00 5,1 C 95 % 1004,0 hPa 1,2 l/m NW 0,00 h 0 W/m 4,8 km/h (1 Bft)
05.11.2014 18:00 4,5 C 95 % 1004,9 hPa 1,4 l/m W-NW 0,00 h 0 W/m 5,7 km/h (1 Bft)
05.11.2014 19:00 3,8 C 95 % 1005,9 hPa 1,2 l/m W-SW 0,00 h 0 W/m 9,7 km/h (2 Bft)
05.11.2014 20:00 2,9 C 95 % 1006,7 hPa 1,4 l/m W-SW 0,00 h 0 W/m 6,8 km/h (2 Bft)
05.11.2014 21:00 2,1 C 95 % 1007,2 hPa 0,8 l/m W-SW 0,00 h 0 W/m 3,5 km/h (1 Bft)
05.11.2014 22:00 1,3 C 95 % 1007,7 hPa 0,0 l/m N 0,00 h 0 W/m 0,8 km/h (0 Bft)
05.11.2014 23:00 0,9 C 95 % 1008,5 hPa 0,0 l/m N 0,00 h 0 W/m 0,9 km/h (0 Bft)
06.11.2014 00:00 0,8 C 96 % 1008,8 hPa 0,4 l/m W-SW 0,00 h 0 W/m 4,0 km/h (1 Bft)
06.11.2014 01:00 0,8 C 96 % 1009,4 hPa 0,8 l/m S-SW 0,00 h 0 W/m 9,4 km/h (2 Bft)
06.11.2014 02:00 0,8 C 96 % 1009,9 hPa 0,8 l/m S-SW 0,00 h 0 W/m 9,0 km/h (2 Bft)
06.11.2014 03:00 0,9 C 97 % 1010,3 hPa 0,8 l/m S-SW 0,00 h 0 W/m 7,5 km/h (2 Bft)
06.11.2014 04:00 0,9 C 97 % 1010,6 hPa 0,4 l/m S-SW 0,00 h 0 W/m 7,1 km/h (2 Bft)
06.11.2014 05:00 1,0 C 97 % 1011,2 hPa 0,4 l/m S-SW 0,00 h 0 W/m 8,4 km/h (2 Bft)
06.11.2014 06:00 1,1 C 97 % 1011,8 hPa 0,4 l/m S-SW 0,00 h 0 W/m 8,6 km/h (2 Bft)
06.11.2014 07:00 1,3 C 98 % 1012,3 hPa 0,4 l/m S-SW 0,00 h 8 W/m 3,1 km/h (1 Bft)
06.11.2014 08:00 1,4 C 98 % 1013,0 hPa 0,4 l/m S-SW 0,00 h 22 W/m 3,3 km/h (1 Bft)
06.11.2014 09:00 1,8 C 98 % 1013,5 hPa 1,0 l/m S-SW 0,00 h 49 W/m 3,6 km/h (1 Bft)
06.11.2014 10:00 2,6 C 98 % 1013,5 hPa 0,4 l/m N 0,00 h 99 W/m 0,0 km/h (0 Bft)
06.11.2014 11:00 3,5 C 98 % 1013,3 hPa 0,0 l/m N 0,00 h 129 W/m 0,0 km/h (0 Bft)
06.11.2014 12:00 4,5 C 97 % 1013,3 hPa 0,0 l/m N 0,00 h 123 W/m 0,0 km/h (0 Bft)
06.11.2014 13:00 4,9 C 95 % 1013,1 hPa 0,0 l/m N 0,00 h 103 W/m 0,9 km/h (0 Bft)
06.11.2014 14:00 5,2 C 94 % 1012,8 hPa 0,0 l/m N 0,00 h 98 W/m 1,5 km/h (1 Bft)
06.11.2014 15:00 5,5 C 92 % 1012,9 hPa 0,0 l/m N 0,25 h 91 W/m 1,9 km/h (1 Bft)
06.11.2014 16:00 5,5 C 91 % 1013,1 hPa 0,0 l/m N 0,08 h 16 W/m 1,7 km/h (1 Bft)
06.11.2014 17:00 5,4 C 92 % 1013,1 hPa 0,0 l/m N 0,00 h 5 W/m 1,2 km/h (1 Bft)
06.11.2014 18:00 4,9 C 93 % 1013,6 hPa 0,0 l/m N 0,00 h 0 W/m 0,0 km/h (0 Bft)
06.11.2014 19:00 4,2 C 93 % 1013,9 hPa 0,0 l/m N 0,00 h 0 W/m 0,4 km/h (0 Bft)
06.11.2014 20:00 3,4 C 94 % 1013,7 hPa 0,0 l/m N 0,00 h 0 W/m 0,0 km/h (0 Bft)
06.11.2014 21:00 2,9 C 95 % 1013,9 hPa 0,0 l/m N 0,00 h 0 W/m 0,3 km/h (0 Bft)
06.11.2014 22:00 3,2 C 96 % 1013,5 hPa 0,0 l/m N 0,00 h 0 W/m 0,0 km/h (0 Bft)
06.11.2014 23:00 3,5 C 96 % 1012,9 hPa 0,0 l/m N 0,00 h 0 W/m 0,0 km/h (0 Bft)
07.11.2014 00:00 3,7 C 97 % 1013,0 hPa 0,0 l/m N 0,00 h 0 W/m 0,7 km/h (0 Bft)
07.11.2014 01:00 3,8 C 97 % 1012,4 hPa 0,0 l/m N 0,00 h 0 W/m 0,1 km/h (0 Bft)
07.11.2014 02:00 3,9 C 97 % 1011,5 hPa 0,0 l/m S-SW 0,00 h 0 W/m 0,0 km/h (0 Bft)
07.11.2014 03:00 4,0 C 97 % 1011,4 hPa 0,0 l/m N 0,00 h 0 W/m 1,6 km/h (1 Bft)
07.11.2014 04:00 4,1 C 98 % 1011,3 hPa 0,0 l/m N 0,00 h 0 W/m 0,0 km/h (0 Bft)
07.11.2014 05:00 4,1 C 98 % 1010,7 hPa 0,0 l/m N 0,00 h 0 W/m 0,0 km/h (0 Bft)
07.11.2014 06:00 4,1 C 98 % 1010,4 hPa 0,0 l/m S-SW 0,00 h 0 W/m 4,3 km/h (1 Bft)
07.11.2014 07:00 3,7 C 97 % 1010,4 hPa 0,0 l/m S-SW 0,00 h 5 W/m 5,6 km/h (1 Bft)
07.11.2014 08:00 3,7 C 97 % 1010,3 hPa 0,0 l/m S-SW 0,00 h 10 W/m 5,9 km/h (2 Bft)
07.11.2014 09:00 4,0 C 97 % 1009,7 hPa 0,0 l/m S-SW 0,00 h 28 W/m 6,4 km/h (2 Bft)
07.11.2014 10:00 4,2 C 97 % 1009,6 hPa 0,0 l/m SW 0,00 h 36 W/m 12,1 km/h (2 Bft)
07.11.2014 11:00 4,3 C 97 % 1009,3 hPa 0,0 l/m SW 0,00 h 57 W/m 10,8 km/h (2 Bft)
07.11.2014 12:00 5,2 C 95 % 1009,0 hPa 0,0 l/m SW 0,00 h 153 W/m 12,9 km/h (3 Bft)
07.11.2014 13:00 5,9 C 93 % 1008,9 hPa 0,0 l/m SW 0,00 h 150 W/m 12,4 km/h (3 Bft)
07.11.2014 14:00 6,3 C 92 % 1009,0 hPa 0,0 l/m S-SW 0,17 h 152 W/m 11,3 km/h (2 Bft)
07.11.2014 15:00 6,6 C 91 % 1009,2 hPa 0,0 l/m S-SW 0,25 h 97 W/m 11,2 km/h (2 Bft)
07.11.2014 16:00 5,7 C 93 % 1009,4 hPa 0,0 l/m S-SW 0,00 h 25 W/m 9,8 km/h (2 Bft)
07.11.2014 17:00 5,0 C 92 % 1010,3 hPa 0,0 l/m N 0,00 h 0 W/m 0,8 km/h (0 Bft)
07.11.2014 18:00 4,1 C 92 % 1011,7 hPa 0,0 l/m SW 0,00 h 0 W/m 0,8 km/h (0 Bft)
07.11.2014 19:00 3,8 C 94 % 1012,5 hPa 0,0 l/m SW 0,00 h 0 W/m 3,5 km/h (1 Bft)
07.11.2014 20:00 4,5 C 96 % 1013,0 hPa 0,4 l/m SW 0,00 h 0 W/m 3,4 km/h (1 Bft)
07.11.2014 21:00 5,0 C 96 % 1013,4 hPa 0,2 l/m SW 0,00 h 0 W/m 1,5 km/h (1 Bft)
07.11.2014 22:00 5,5 C 97 % 1013,3 hPa 0,0 l/m SW 0,00 h 0 W/m 6,3 km/h (2 Bft)
07.11.2014 23:00 5,8 C 97 % 1013,3 hPa 0,0 l/m SW 0,00 h 0 W/m 7,4 km/h (2 Bft)
08.11.2014 00:00 6,1 C 97 % 1013,6 hPa 0,0 l/m SW 0,00 h 0 W/m 9,9 km/h (2 Bft)
08.11.2014 01:00 6,0 C 96 % 1014,0 hPa 0,0 l/m SW 0,00 h 0 W/m 6,2 km/h (2 Bft)
08.11.2014 02:00 5,7 C 96 % 1014,2 hPa 0,0 l/m N 0,00 h 0 W/m 1,5 km/h (1 Bft)
08.11.2014 03:00 4,9 C 95 % 1014,3 hPa 0,0 l/m SW 0,00 h 0 W/m 2,3 km/h (1 Bft)
08.11.2014 04:00 4,2 C 95 % 1014,5 hPa 0,0 l/m N 0,00 h 0 W/m 0,1 km/h (0 Bft)
08.11.2014 05:00 3,3 C 95 % 1014,8 hPa 0,0 l/m SW 0,00 h 0 W/m 0,4 km/h (0 Bft)
08.11.2014 06:00 2,3 C 95 % 1015,2 hPa 0,0 l/m N 0,00 h 0 W/m 0,0 km/h (0 Bft)
08.11.2014 07:00 1,7 C 95 % 1015,7 hPa 0,0 l/m N 0,00 h 13 W/m 0,1 km/h (0 Bft)
08.11.2014 08:00 1,8 C 96 % 1016,1 hPa 0,0 l/m N 0,08 h 64 W/m 0,0 km/h (0 Bft)
08.11.2014 09:00 3,2 C 98 % 1016,0 hPa 0,0 l/m N 0,92 h 203 W/m 0,5 km/h (0 Bft)
08.11.2014 10:00 5,9 C 99 % 1015,9 hPa 0,0 l/m SW 1,00 h 336 W/m 2,4 km/h (1 Bft)
08.11.2014 11:00 8,6 C 95 % 1015,2 hPa 0,0 l/m SW 1,00 h 408 W/m 6,0 km/h (2 Bft)
08.11.2014 12:00 10,4 C 82 % 1014,2 hPa 0,0 l/m N-NO 1,00 h 422 W/m 7,9 km/h (2 Bft)
08.11.2014 13:00 11,2 C 78 % 1013,6 hPa 0,0 l/m O-NO 1,00 h 386 W/m 8,3 km/h (2 Bft)
08.11.2014 14:00 12,0 C 73 % 1012,8 hPa 0,0 l/m O-NO 1,00 h 297 W/m 9,2 km/h (2 Bft)
08.11.2014 15:00 11,8 C 73 % 1012,0 hPa 0,0 l/m O-NO 1,00 h 157 W/m 12,1 km/h (2 Bft)
08.11.2014 16:00 11,0 C 75 % 1011,2 hPa 0,0 l/m O-NO 0,08 h 20 W/m 6,5 km/h (2 Bft)
08.11.2014 17:00 9,3 C 81 % 1010,6 hPa 0,0 l/m NO 0,00 h 0 W/m 5,2 km/h (1 Bft)
08.11.2014 18:00 7,7 C 85 % 1010,3 hPa 0,0 l/m NO 0,00 h 0 W/m 6,0 km/h (2 Bft)
08.11.2014 19:00 6,9 C 88 % 1010,0 hPa 0,0 l/m NO 0,00 h 0 W/m 7,1 km/h (2 Bft)
08.11.2014 20:00 6,3 C 90 % 1009,6 hPa 0,0 l/m N 0,00 h 0 W/m 4,1 km/h (1 Bft)
08.11.2014 21:00 5,7 C 91 % 1009,3 hPa 0,0 l/m N-NO 0,00 h 0 W/m 7,2 km/h (2 Bft)
08.11.2014 22:00 5,2 C 93 % 1009,2 hPa 0,0 l/m N-NO 0,00 h 0 W/m 7,8 km/h (2 Bft)
08.11.2014 23:00 4,7 C 94 % 1009,2 hPa 0,0 l/m N-NO 0,00 h 0 W/m 3,9 km/h (1 Bft)
09.11.2014 00:00 4,4 C 96 % 1009,1 hPa 0,0 l/m N-NO 0,00 h 0 W/m 3,6 km/h (1 Bft)
09.11.2014 01:00 4,6 C 96 % 1009,1 hPa 0,0 l/m N 0,00 h 0 W/m 1,3 km/h (1 Bft)
09.11.2014 02:00 4,5 C 97 % 1009,0 hPa 0,0 l/m N 0,00 h 0 W/m 0,3 km/h (0 Bft)
09.11.2014 03:00 4,3 C 97 % 1008,7 hPa 0,0 l/m N 0,00 h 0 W/m 0,9 km/h (0 Bft)
09.11.2014 04:00 4,1 C 97 % 1009,2 hPa 0,0 l/m N 0,00 h 0 W/m 0,4 km/h (0 Bft)
09.11.2014 05:00 3,5 C 97 % 1009,4 hPa 0,0 l/m N-NO 0,00 h 0 W/m 2,9 km/h (1 Bft)
09.11.2014 06:00 3,4 C 97 % 1009,4 hPa 0,0 l/m W 0,00 h 0 W/m 3,1 km/h (1 Bft)
09.11.2014 07:00 3,6 C 98 % 1009,6 hPa 0,0 l/m W-SW 0,00 h 8 W/m 4,8 km/h (1 Bft)
09.11.2014 08:00 3,9 C 98 % 1010,0 hPa 0,0 l/m W-SW 0,00 h 24 W/m 3,1 km/h (1 Bft)
09.11.2014 09:00 4,5 C 98 % 1009,9 hPa 0,2 l/m W-SW 0,00 h 53 W/m 1,5 km/h (1 Bft)
09.11.2014 10:00 4,9 C 99 % 1009,5 hPa 0,0 l/m W-SW 0,00 h 79 W/m 4,3 km/h (1 Bft)
09.11.2014 11:00 5,2 C 99 % 1009,1 hPa 0,0 l/m W 0,00 h 81 W/m 5,7 km/h (1 Bft)
09.11.2014 12:00 5,5 C 99 % 1009,2 hPa 0,0 l/m N 0,00 h 107 W/m 9,0 km/h (2 Bft)
09.11.2014 13:00 6,0 C 98 % 1009,0 hPa 0,0 l/m N 0,00 h 100 W/m 6,6 km/h (2 Bft)
09.11.2014 14:00 6,2 C 98 % 1008,7 hPa 0,0 l/m N-NO 0,00 h 56 W/m 6,6 km/h (2 Bft)
09.11.2014 15:00 5,7 C 97 % 1008,4 hPa 0,0 l/m NO 0,00 h 44 W/m 7,2 km/h (2 Bft)
09.11.2014 16:00 5,6 C 97 % 1008,1 hPa 0,0 l/m NO 0,00 h 12 W/m 6,0 km/h (2 Bft)
09.11.2014 17:00 5,7 C 97 % 1008,3 hPa 0,0 l/m NO 0,00 h 0 W/m 7,6 km/h (2 Bft)
09.11.2014 18:00 5,5 C 97 % 1008,7 hPa 0,0 l/m NO 0,00 h 0 W/m 9,0 km/h (2 Bft)
09.11.2014 19:00 5,2 C 98 % 1008,8 hPa 0,0 l/m NO 0,00 h 0 W/m 8,3 km/h (2 Bft)
09.11.2014 20:00 5,4 C 98 % 1008,4 hPa 0,0 l/m NO 0,00 h 0 W/m 8,3 km/h (2 Bft)
09.11.2014 21:00 5,7 C 98 % 1008,9 hPa 0,0 l/m NO 0,00 h 0 W/m 5,1 km/h (1 Bft)
09.11.2014 22:00 5,8 C 98 % 1008,8 hPa 0,0 l/m N 0,00 h 0 W/m 3,2 km/h (1 Bft)
09.11.2014 23:00 5,8 C 98 % 1009,1 hPa 0,0 l/m N 0,00 h 0 W/m 1,5 km/h (1 Bft)
Min-Datum _ 05.11.14 04.11.14 04.11.14 - - - - 03.11.14
_ Min-Zeit 23:40 15:40 17:40 - - - - 00:00
Minimum _ 0,8 C 41 % 990,1 hPa - - - - 0,0 km/h (0 Bft)
Max-Datum _ 04.11.14 03.11.14 08.11.14 05.11.14 - 03.11.14 03.11.14 04.11.14
_ Max-Zeit 14:40 10:25 08:05 16:05 - 07:20 12:45 15:25
Maximum _ 19,2 C 100 % 1016,2 hPa 1,8 l/m - 0,08 h 512 W/m 37,0 km/h
SW (5 Bft)
Durchschnitt _ 6,8 C 88 % 1006,8 hPa #20,2 l/m S-SW #16:25 h 118 W/m 5,4 km/h (1 Bft)